Time;durP1;ratioP1;P1;durP2;ratioP2;P2;SDS_P1;SDS_P2;PMS_P1;PMS_P2;Temp;Humidity;BMP_temperature;BMP_pressure;BME280_temperature;BME280_humidity;BME280_pressure;Samples;Min_cycle;Max_cycle;Signal;HPM_P1;HPM_P2
2022/06/16 00:01:00;;;;;;;3.42;1.30;;;23.80;43.80;22.70;101547.00;;;;5067242;28;20215;-73
2022/06/16 00:03:46;;;;;;;2.28;1.10;;;23.80;43.90;22.70;101542.00;;;;5058558;28;20473;-73
2022/06/16 00:06:32;;;;;;;1.70;0.90;;;23.80;43.90;22.70;101542.00;;;;5065120;28;20059;-73
2022/06/16 00:09:18;;;;;;;2.53;1.00;;;23.80;43.90;22.70;101546.00;;;;5054886;28;20756;-73
2022/06/16 00:12:05;;;;;;;1.55;1.00;;;23.70;43.90;22.70;101536.00;;;;5062640;28;20053;-73
2022/06/16 00:14:51;;;;;;;1.30;1.00;;;23.70;43.90;22.70;101535.00;;;;5067843;28;20123;-73
2022/06/16 00:17:37;;;;;;;2.58;1.00;;;23.70;44.00;22.60;101532.00;;;;5058244;28;20485;-73
2022/06/16 00:20:23;;;;;;;1.92;1.10;;;23.70;43.90;22.70;101530.00;;;;5060239;28;20294;-73
2022/06/16 00:23:09;;;;;;;2.75;1.20;;;23.60;43.90;22.70;101526.00;;;;5066724;28;20052;-73
2022/06/16 00:25:55;;;;;;;2.80;0.95;;;23.70;44.00;22.70;101528.00;;;;5063899;28;20064;-73
2022/06/16 00:28:41;;;;;;;1.73;1.20;;;23.70;43.90;22.70;101537.00;;;;5053037;28;20098;-73
2022/06/16 00:31:27;;;;;;;1.80;1.10;;;23.70;43.90;22.70;101539.00;;;;5068039;28;20131;-73
2022/06/16 00:34:13;;;;;;;3.13;0.95;;;23.70;43.90;22.60;101544.00;;;;5058835;28;20110;-73
2022/06/16 00:36:59;;;;;;;1.75;0.93;;;23.70;43.90;22.70;101543.00;;;;5068471;28;20045;-74
2022/06/16 00:39:46;;;;;;;2.63;1.02;;;23.70;43.90;22.70;101533.00;;;;5068056;28;20036;-73
2022/06/16 00:42:32;;;;;;;2.65;0.95;;;23.70;43.90;22.70;101520.00;;;;5062967;28;20131;-73
2022/06/16 00:45:52;;;;;;;1.75;1.02;;;23.70;43.90;22.60;101511.00;;;;5068463;28;20052;-73
2022/06/16 00:48:49;;;;;;;1.77;1.02;;;23.70;44.00;22.60;101510.00;;;;5051863;28;20553;-73
2022/06/16 00:51:43;;;;;;;2.20;0.93;;;23.70;43.90;22.60;101513.00;;;;5058500;28;20130;-73
2022/06/16 00:54:54;;;;;;;2.85;0.98;;;23.70;44.00;22.60;101514.00;;;;5064457;28;20044;-74
2022/06/16 00:57:45;;;;;;;2.28;0.90;;;23.60;43.90;22.60;101516.00;;;;5063152;28;20047;-73
2022/06/16 01:00:47;;;;;;;1.90;0.70;;;23.50;43.90;22.60;101514.00;;;;5053060;28;20063;-73
2022/06/16 01:06:37;;;;;;;2.35;1.13;;;23.70;44.00;22.60;101542.00;;;;5056424;28;20072;-73
2022/06/16 01:09:27;;;;;;;0.93;0.68;;;23.70;43.80;22.60;101543.00;;;;5063376;28;20044;-73
2022/06/16 01:15:45;;;;;;;3.03;1.10;;;23.60;43.70;22.60;101526.00;;;;5059348;28;20043;-73
2022/06/16 01:18:43;;;;;;;2.10;0.80;;;23.60;43.80;22.60;101526.00;;;;5065794;28;20055;-73
2022/06/16 01:21:36;;;;;;;1.05;0.80;;;23.60;43.90;22.60;101530.00;;;;5052524;28;20048;-74
2022/06/16 01:24:57;;;;;;;1.50;0.95;;;23.50;43.90;22.60;101520.00;;;;5056956;28;20048;-73
2022/06/16 01:28:06;;;;;;;2.25;1.00;;;23.50;43.70;22.60;101519.00;;;;5067140;28;20538;-73
2022/06/16 01:31:28;;;;;;;1.95;0.80;;;23.60;43.90;22.60;101508.00;;;;5068182;28;20044;-73
2022/06/16 01:34:35;;;;;;;1.45;0.80;;;23.50;44.00;22.50;101527.00;;;;5038291;28;20041;-75
2022/06/16 01:37:34;;;;;;;0.90;0.80;;;23.50;44.00;22.60;101534.00;;;;5054362;28;20044;-73
2022/06/16 01:40:42;;;;;;;;;;;23.50;44.20;22.50;101537.00;;;;5051533;28;20499;-73
2022/06/16 01:43:35;;;;;;;1.10;1.00;;;23.50;44.20;22.50;101546.00;;;;5063320;28;20407;-73
2022/06/16 01:46:24;;;;;;;1.80;0.85;;;23.50;44.10;22.50;101546.00;;;;5051629;28;20135;-73
2022/06/16 01:49:18;;;;;;;1.70;1.10;;;23.50;44.10;22.50;101545.00;;;;5044633;28;20112;-74
2022/06/16 01:52:20;;;;;;;3.08;0.80;;;23.50;44.10;22.50;101528.00;;;;5044668;28;20036;-74
2022/06/16 01:55:12;;;;;;;1.55;0.80;;;23.50;44.00;22.50;101527.00;;;;5052255;28;20468;-73
2022/06/16 01:58:21;;;;;;;2.15;0.80;;;23.50;44.10;22.50;101519.00;;;;5047950;28;20459;-73
2022/06/16 02:01:10;;;;;;;2.50;1.00;;;23.50;44.30;22.50;101523.00;;;;5038388;28;20114;-73
2022/06/16 02:04:04;;;;;;;3.67;0.88;;;23.50;44.30;22.50;101532.00;;;;5051744;28;20178;-73
2022/06/16 02:06:54;;;;;;;1.02;0.90;;;23.50;44.40;22.50;101544.00;;;;5050672;28;20063;-73
2022/06/16 02:09:43;;;;;;;2.13;1.00;;;23.50;44.30;22.50;101545.00;;;;5050235;28;20115;-73
2022/06/16 02:15:42;;;;;;;2.45;0.80;;;23.50;44.10;22.50;101535.00;;;;5050526;28;20052;-73
2022/06/16 02:18:31;;;;;;;1.45;0.75;;;23.40;43.90;22.50;101531.00;;;;5061752;28;20135;-73
2022/06/16 02:21:35;;;;;;;2.50;1.10;;;23.40;43.90;22.50;101527.00;;;;5051914;28;20397;-73
2022/06/16 02:24:24;;;;;;;3.28;1.13;;;23.40;43.80;22.50;101533.00;;;;5061719;28;20110;-73
2022/06/16 02:27:10;;;;;;;2.15;0.70;;;23.40;43.80;22.50;101527.00;;;;5052148;28;20398;-73
2022/06/16 02:29:56;;;;;;;1.42;0.80;;;23.40;43.80;22.50;101542.00;;;;5057841;28;20040;-73
2022/06/16 02:33:16;;;;;;;2.20;0.90;;;23.50;44.00;22.50;101542.00;;;;5048456;28;20401;-74
2022/06/16 02:36:31;;;;;;;1.92;0.70;;;23.40;44.00;22.50;101553.00;;;;5038097;28;20375;-73
2022/06/16 02:39:36;;;;;;;0.65;0.60;;;23.40;44.00;22.50;101561.00;;;;5046771;28;20122;-73
2022/06/16 02:42:34;;;;;;;1.48;0.90;;;23.40;44.00;22.50;101555.00;;;;5026786;28;20425;-73
2022/06/16 02:45:49;;;;;;;2.63;1.30;;;23.40;44.00;22.50;101546.00;;;;5060232;28;20083;-73
2022/06/16 02:48:46;;;;;;;1.83;1.00;;;23.40;44.10;22.40;101543.00;;;;5042495;28;20041;-73
2022/06/16 02:51:42;;;;;;;2.17;0.90;;;23.40;44.00;22.50;101552.00;;;;5059663;28;20515;-73
2022/06/16 02:55:01;;;;;;;1.70;0.80;;;23.40;44.00;22.40;101564.00;;;;5051697;28;20033;-73
2022/06/16 02:57:52;;;;;;;3.13;0.80;;;23.40;44.10;22.40;101567.00;;;;5055124;28;20045;-73
2022/06/16 03:00:41;;;;;;;0.75;0.50;;;23.40;44.10;22.40;101571.00;;;;5052619;28;20068;-73
2022/06/16 03:03:30;;;;;;;1.38;0.90;;;23.40;44.10;22.40;101584.00;;;;5050596;28;20043;-73
2022/06/16 03:06:17;;;;;;;0.93;0.82;;;23.40;44.20;22.40;101579.00;;;;5071152;28;20040;-74
2022/06/16 03:09:04;;;;;;;1.10;0.73;;;23.30;44.20;22.40;101576.00;;;;5063231;28;20040;-74
2022/06/16 03:11:50;;;;;;;1.90;0.90;;;23.30;44.20;22.40;101577.00;;;;5054746;28;20115;-74
2022/06/16 03:14:36;;;;;;;1.95;1.00;;;23.30;44.20;22.40;101570.00;;;;5049750;28;20098;-73
2022/06/16 03:17:23;;;;;;;1.25;0.85;;;23.20;44.20;22.40;101568.00;;;;5047666;28;20576;-73
2022/06/16 03:20:11;;;;;;;1.13;0.90;;;23.30;44.30;22.40;101574.00;;;;5055695;28;20125;-73
2022/06/16 03:22:57;;;;;;;1.27;0.65;;;23.30;44.30;22.40;101585.00;;;;5068422;28;20135;-73
2022/06/16 03:25:43;;;;;;;1.23;0.80;;;23.30;44.20;22.40;101592.00;;;;5065243;28;20041;-73
2022/06/16 03:28:29;;;;;;;5.28;1.25;;;23.20;44.20;22.40;101589.00;;;;5046135;28;20037;-74
2022/06/16 03:31:15;;;;;;;1.52;0.98;;;23.30;44.30;22.40;101601.00;;;;5061314;28;20045;-73
2022/06/16 03:34:01;;;;;;;1.83;0.80;;;23.30;44.30;22.40;101597.00;;;;5060347;28;20052;-73
2022/06/16 03:36:47;;;;;;;3.38;1.30;;;23.20;44.20;22.30;101594.00;;;;5064301;28;20056;-73
2022/06/16 03:39:34;;;;;;;2.55;1.00;;;23.20;44.30;22.30;101594.00;;;;5062128;28;20098;-73
2022/06/16 03:42:20;;;;;;;1.75;1.10;;;23.20;44.40;22.30;101595.00;;;;5064439;28;20044;-73
2022/06/16 03:45:07;;;;;;;2.00;0.90;;;23.20;44.40;22.30;101592.00;;;;5066463;28;20049;-73
2022/06/16 03:47:53;;;;;;;2.33;1.05;;;23.20;44.40;22.30;101596.00;;;;5054182;28;20041;-73
2022/06/16 03:50:39;;;;;;;1.30;1.10;;;23.20;44.40;22.30;101608.00;;;;5072812;28;20544;-73
2022/06/16 03:53:25;;;;;;;1.13;0.98;;;23.20;44.40;22.30;101614.00;;;;5067990;28;20044;-73
2022/06/16 03:56:12;;;;;;;1.45;1.08;;;23.20;44.50;22.30;101619.00;;;;5058675;28;20310;-74
2022/06/16 03:58:58;;;;;;;3.00;0.80;;;23.20;44.50;22.30;101612.00;;;;5064212;28;20093;-73
2022/06/16 04:01:44;;;;;;;1.40;0.95;;;23.20;44.50;22.30;101618.00;;;;5064126;28;20055;-74
2022/06/16 04:04:30;;;;;;;1.95;0.90;;;23.10;44.50;22.30;101621.00;;;;5058148;28;20044;-73
2022/06/16 04:07:16;;;;;;;1.90;0.95;;;23.20;44.50;22.30;101635.00;;;;5067234;28;20040;-73
2022/06/16 04:10:04;;;;;;;2.28;1.23;;;23.10;44.50;22.30;101638.00;;;;5062092;28;20051;-73
2022/06/16 04:12:50;;;;;;;2.58;1.10;;;23.10;44.50;22.30;101651.00;;;;5061856;28;20094;-73
2022/06/16 04:15:36;;;;;;;1.05;0.77;;;23.10;44.50;22.20;101652.00;;;;5067488;28;20035;-73
2022/06/16 04:18:22;;;;;;;4.50;1.25;;;23.10;44.60;22.30;101656.00;;;;5062234;28;20043;-73
2022/06/16 04:21:12;;;;;;;1.50;0.85;;;23.10;44.60;22.30;101655.00;;;;5059771;28;20098;-74
2022/06/16 04:23:58;;;;;;;2.03;1.17;;;23.10;44.60;22.20;101669.00;;;;5061325;28;20105;-73
2022/06/16 04:26:45;;;;;;;1.92;0.93;;;23.10;44.60;22.20;101662.00;;;;5068020;28;20056;-73
2022/06/16 04:29:31;;;;;;;2.25;0.98;;;23.10;44.80;22.20;101668.00;;;;5064156;28;20047;-73
2022/06/16 04:32:17;;;;;;;2.13;1.17;;;23.00;44.70;22.20;101666.00;;;;5066551;28;20402;-73
2022/06/16 04:35:04;;;;;;;2.00;0.82;;;23.10;44.80;22.20;101661.00;;;;5046930;28;20486;-73
2022/06/16 04:37:50;;;;;;;1.73;0.90;;;23.10;44.70;22.20;101662.00;;;;5056301;28;20048;-73
2022/06/16 04:40:36;;;;;;;2.85;1.00;;;23.10;44.80;22.20;101675.00;;;;5061494;28;20041;-73
2022/06/16 04:43:22;;;;;;;0.90;0.80;;;23.10;44.80;22.20;101675.00;;;;5060910;28;20040;-73
2022/06/16 04:46:08;;;;;;;1.08;0.70;;;23.00;44.80;22.20;101680.00;;;;5070971;28;20472;-73
2022/06/16 04:48:54;;;;;;;2.10;0.93;;;23.10;44.80;22.20;101685.00;;;;5051537;28;20059;-73
2022/06/16 04:51:41;;;;;;;3.05;1.20;;;23.00;44.80;22.20;101687.00;;;;5066919;28;20044;-73
2022/06/16 04:54:27;;;;;;;1.13;1.02;;;23.00;44.90;22.20;101675.00;;;;5058011;28;20048;-73
2022/06/16 04:57:13;;;;;;;1.90;1.08;;;23.00;44.90;22.20;101667.00;;;;5067456;28;20036;-73
2022/06/16 04:59:59;;;;;;;2.50;1.00;;;23.10;45.00;22.20;101671.00;;;;5053785;28;20052;-73
2022/06/16 05:02:45;;;;;;;1.23;0.93;;;23.10;45.00;22.20;101666.00;;;;5065654;28;20056;-74
2022/06/16 05:05:31;;;;;;;1.05;0.82;;;23.00;45.00;22.20;101670.00;;;;5066330;28;20082;-73
2022/06/16 05:08:18;;;;;;;1.73;0.80;;;23.10;45.00;22.20;101676.00;;;;5061674;28;20094;-73
2022/06/16 05:11:04;;;;;;;4.22;1.35;;;23.10;45.00;22.20;101677.00;;;;5068133;28;20490;-73
2022/06/16 05:13:50;;;;;;;2.05;1.20;;;23.10;45.00;22.20;101687.00;;;;5067728;28;20053;-73
2022/06/16 05:16:36;;;;;;;2.30;1.33;;;23.10;45.00;22.20;101673.00;;;;5055056;28;20456;-73
2022/06/16 05:19:23;;;;;;;3.00;1.10;;;23.10;45.00;22.20;101684.00;;;;5066362;28;20052;-73
2022/06/16 05:22:09;;;;;;;1.00;0.88;;;23.10;45.10;22.20;101679.00;;;;5049793;28;20052;-73
2022/06/16 05:24:55;;;;;;;2.00;1.02;;;23.10;45.20;22.20;101680.00;;;;5065331;28;20708;-73
2022/06/16 05:27:41;;;;;;;1.00;0.80;;;23.10;45.10;22.20;101690.00;;;;5067536;28;20037;-73
2022/06/16 05:30:27;;;;;;;1.60;1.00;;;23.00;45.10;22.20;101692.00;;;;5067268;28;20084;-74
2022/06/16 05:33:13;;;;;;;1.20;1.10;;;23.10;45.20;22.20;101692.00;;;;5064690;28;20040;-73
2022/06/16 05:36:05;;;;;;;2.28;1.02;;;23.10;45.20;22.20;101688.00;;;;5068129;28;20037;-73
2022/06/16 05:38:52;;;;;;;1.20;0.98;;;23.10;45.20;22.20;101689.00;;;;5058949;28;20052;-73
2022/06/16 05:41:38;;;;;;;1.52;0.98;;;23.10;45.20;22.20;101689.00;;;;5052731;28;20406;-73
2022/06/16 05:44:25;;;;;;;1.43;0.80;;;23.10;45.20;22.20;101697.00;;;;5065202;28;20131;-73
2022/06/16 05:47:11;;;;;;;3.50;1.05;;;23.10;45.20;22.20;101697.00;;;;5067295;28;20048;-74
2022/06/16 05:49:58;;;;;;;1.60;1.10;;;23.10;45.30;22.20;101692.00;;;;5046677;28;20055;-73
2022/06/16 05:52:44;;;;;;;2.10;1.10;;;23.10;45.20;22.20;101696.00;;;;5052224;28;20282;-73
2022/06/16 05:55:30;;;;;;;2.75;0.98;;;23.00;45.20;22.20;101692.00;;;;5050123;28;20294;-73
2022/06/16 05:58:17;;;;;;;2.53;0.82;;;23.10;45.20;22.20;101699.00;;;;5064769;28;20040;-73
2022/06/16 06:01:04;;;;;;;2.47;1.00;;;23.10;45.30;22.20;101712.00;;;;5066790;28;20048;-74
2022/06/16 06:03:50;;;;;;;1.80;0.80;;;23.10;45.40;22.20;101706.00;;;;5063019;28;20068;-73
2022/06/16 06:06:36;;;;;;;2.50;0.80;;;23.10;45.40;22.20;101720.00;;;;5066795;28;20032;-73
2022/06/16 06:18:36;;;;;;;2.47;0.85;;;23.20;45.50;22.20;101730.00;;;;5051546;28;20044;-73
2022/06/16 06:24:37;;;;;;;2.05;0.73;;;23.20;45.40;22.20;101722.00;;;;5054119;28;20543;-73
2022/06/16 06:27:39;;;;;;;1.27;0.75;;;23.20;45.60;22.20;101735.00;;;;5060634;28;20042;-74
2022/06/16 06:30:28;;;;;;;2.00;0.90;;;23.20;46.30;22.20;101737.00;;;;5057318;28;20045;-74
2022/06/16 06:33:15;;;;;;;1.00;0.80;;;23.10;45.60;22.20;101745.00;;;;5053153;28;20040;-74
2022/06/16 06:36:01;;;;;;;2.17;0.93;;;23.20;45.50;22.20;101740.00;;;;5066270;28;20534;-74
2022/06/16 06:38:47;;;;;;;0.80;0.65;;;23.10;45.50;22.20;101735.00;;;;5062935;28;20049;-74
2022/06/16 06:41:33;;;;;;;1.85;0.77;;;23.20;45.50;22.20;101744.00;;;;5060820;28;20045;-74
2022/06/16 06:44:19;;;;;;;1.17;0.60;;;23.20;45.50;22.20;101737.00;;;;5061729;28;20444;-74
2022/06/16 06:47:05;;;;;;;0.70;0.65;;;23.20;45.50;22.20;101741.00;;;;5063617;28;20040;-73
2022/06/16 06:49:52;;;;;;;2.38;0.95;;;23.20;45.60;22.20;101747.00;;;;5044048;28;20390;-74
2022/06/16 06:52:38;;;;;;;2.80;0.80;;;23.20;45.60;22.20;101753.00;;;;5048454;28;20033;-74
2022/06/16 06:55:24;;;;;;;2.38;0.93;;;23.20;45.40;22.20;101766.00;;;;5059251;28;20044;-74
2022/06/16 06:58:20;;;;;;;1.50;0.80;;;23.20;45.30;22.20;101767.00;;;;5058091;28;20106;-74
2022/06/16 07:01:06;;;;;;;0.90;0.73;;;23.20;45.60;22.20;101768.00;;;;5062179;28;20544;-74
2022/06/16 07:03:52;;;;;;;2.17;0.77;;;23.20;45.40;22.20;101770.00;;;;5059246;28;20072;-74
2022/06/16 07:06:39;;;;;;;1.00;0.60;;;23.20;46.20;22.20;101781.00;;;;5062150;28;20040;-74
2022/06/16 07:09:25;;;;;;;1.23;0.70;;;23.20;45.40;22.20;101780.00;;;;5049146;28;20051;-74
2022/06/16 07:12:14;;;;;;;1.00;0.80;;;23.20;45.40;22.20;101771.00;;;;5057526;28;20509;-74
2022/06/16 07:15:00;;;;;;;1.30;0.80;;;23.20;45.40;22.20;101767.00;;;;5050325;28;20036;-74
2022/06/16 07:17:46;;;;;;;1.77;0.77;;;23.20;45.40;22.20;101780.00;;;;5051629;28;20769;-74
2022/06/16 07:20:33;;;;;;;1.25;0.60;;;23.30;45.50;22.20;101777.00;;;;5046927;28;20055;-74
2022/06/16 07:23:19;;;;;;;1.73;0.80;;;23.20;45.30;22.20;101780.00;;;;5046358;28;20041;-75
2022/06/16 07:26:05;;;;;;;1.85;0.60;;;23.20;45.30;22.20;101789.00;;;;5045360;28;20044;-73
2022/06/16 07:28:51;;;;;;;0.90;0.63;;;23.20;45.20;22.20;101780.00;;;;5051554;28;20048;-73
2022/06/16 07:31:37;;;;;;;0.35;0.30;;;23.20;45.30;22.20;101784.00;;;;5064295;28;20490;-73
2022/06/16 07:34:25;;;;;;;2.35;0.65;;;23.20;45.20;22.20;101790.00;;;;5059670;28;20045;-74
2022/06/16 07:37:11;;;;;;;2.35;0.77;;;23.30;45.20;22.20;101775.00;;;;5057153;28;20044;-73
2022/06/16 07:39:57;;;;;;;1.38;0.60;;;23.30;45.20;22.20;101780.00;;;;5063058;28;20127;-73
2022/06/16 07:42:44;;;;;;;0.80;0.50;;;23.30;45.30;22.20;101783.00;;;;5063050;28;20048;-72
2022/06/16 07:45:30;;;;;;;0.70;0.40;;;23.30;45.40;22.20;101779.00;;;;5045214;28;20053;-73
2022/06/16 07:48:17;;;;;;;0.50;0.47;;;23.30;45.30;22.20;101783.00;;;;5052911;28;20041;-73
2022/06/16 07:51:03;;;;;;;0.75;0.52;;;23.20;45.20;22.20;101783.00;;;;5066152;28;20048;-73
2022/06/16 07:53:49;;;;;;;0.65;0.43;;;23.30;45.20;22.20;101798.00;;;;5059254;28;20037;-73
2022/06/16 07:56:35;;;;;;;2.08;0.55;;;23.30;45.10;22.20;101795.00;;;;5067273;28;20048;-73
2022/06/16 07:59:21;;;;;;;1.73;0.60;;;23.30;45.20;22.20;101782.00;;;;5045005;28;20060;-73
2022/06/16 08:02:07;;;;;;;0.90;0.43;;;23.30;45.10;22.20;101787.00;;;;5061329;28;20037;-73
2022/06/16 08:04:53;;;;;;;3.53;0.60;;;23.30;45.10;22.20;101788.00;;;;5050257;28;20122;-73
2022/06/16 08:07:41;;;;;;;0.77;0.40;;;23.30;45.10;22.20;101790.00;;;;5056202;28;20094;-73
2022/06/16 08:10:29;;;;;;;2.63;0.55;;;23.30;45.10;22.20;101792.00;;;;5050210;28;20044;-73
2022/06/16 08:13:15;;;;;;;0.93;0.43;;;23.30;45.00;22.20;101790.00;;;;5063166;28;20040;-73
2022/06/16 08:16:01;;;;;;;2.08;0.50;;;23.30;45.00;22.20;101802.00;;;;5057706;28;20044;-73
2022/06/16 08:18:47;;;;;;;1.80;0.43;;;23.30;45.00;22.20;101810.00;;;;5061054;28;20040;-73
2022/06/16 08:21:33;;;;;;;1.95;0.45;;;23.30;44.90;22.20;101814.00;;;;5056900;28;20032;-73
2022/06/16 08:24:19;;;;;;;2.25;0.50;;;23.30;44.90;22.20;101811.00;;;;5064630;28;20043;-73
2022/06/16 08:27:05;;;;;;;0.50;0.32;;;23.30;45.00;22.20;101809.00;;;;5060517;28;20489;-73
2022/06/16 08:29:51;;;;;;;0.75;0.40;;;23.30;45.00;22.20;101809.00;;;;5048351;28;20541;-73
2022/06/16 08:32:37;;;;;;;1.25;0.77;;;23.40;45.00;22.20;101811.00;;;;5042100;28;20040;-72
2022/06/16 08:35:24;;;;;;;2.72;0.50;;;23.30;44.90;22.20;101813.00;;;;5060198;28;20425;-72
2022/06/16 08:38:10;;;;;;;1.27;0.50;;;23.30;44.90;22.20;101818.00;;;;5056889;28;20391;-73
2022/06/16 08:41:11;;;;;;;1.60;0.60;;;23.30;45.00;22.20;101805.00;;;;5058661;28;20041;-73
2022/06/16 08:44:12;;;;;;;1.00;0.40;;;23.30;45.00;22.20;101796.00;;;;5050640;28;20052;-73
2022/06/16 08:47:07;;;;;;;2.90;0.50;;;23.30;45.00;22.20;101792.00;;;;5059236;28;20115;-72
2022/06/16 08:50:23;;;;;;;1.27;0.70;;;23.30;45.10;22.20;101793.00;;;;5046995;28;20155;-71
2022/06/16 08:53:59;;;;;;;1.17;0.60;;;23.30;45.00;22.20;101796.00;;;;5049260;28;20047;-71
2022/06/16 08:57:25;;;;;;;0.55;0.50;;;23.30;45.00;22.20;101796.00;;;;5049722;28;20222;-71
2022/06/16 09:00:31;;;;;;;1.20;0.43;;;23.30;45.00;22.20;101791.00;;;;5048085;28;20048;-71
2022/06/16 09:03:21;;;;;;;1.67;0.40;;;23.40;45.00;22.20;101792.00;;;;5039549;28;20055;-73
2022/06/16 09:06:27;;;;;;;1.25;0.70;;;23.40;45.00;22.20;101787.00;;;;5049970;28;20048;-72
2022/06/16 09:12:38;;;;;;;1.40;0.43;;;23.30;45.00;22.20;101792.00;;;;5067909;28;20049;-72
2022/06/16 09:16:19;;;;;;;0.90;0.60;;;23.40;45.10;22.20;101784.00;;;;5066684;28;20036;-72
2022/06/16 09:20:06;;;;;;;1.33;0.50;;;23.30;45.10;22.20;101784.00;;;;5055388;28;20382;-72
2022/06/16 09:23:14;;;;;;;0.82;0.55;;;23.40;45.10;22.20;101788.00;;;;4990210;28;20042;-72
2022/06/16 09:26:25;;;;;;;0.90;0.35;;;23.30;45.10;22.20;101794.00;;;;5045673;28;20527;-72
2022/06/16 09:29:52;;;;;;;1.55;0.50;;;23.30;45.10;22.20;101791.00;;;;5063775;28;20059;-72
2022/06/16 09:32:51;;;;;;;1.70;0.40;;;23.30;45.00;22.20;101794.00;;;;5033929;28;20041;-71
2022/06/16 09:35:57;;;;;;;0.55;0.30;;;23.30;45.00;22.20;101801.00;;;;5056276;28;20143;-72
2022/06/16 09:39:01;;;;;;;1.17;0.50;;;23.40;45.20;22.20;101803.00;;;;5053143;28;20071;-72
2022/06/16 09:42:33;;;;;;;1.63;0.43;;;23.30;45.00;22.20;101796.00;;;;5033814;28;20041;-71
2022/06/16 09:45:28;;;;;;;2.55;0.50;;;23.30;45.20;22.20;101808.00;;;;5053616;28;20490;-71
2022/06/16 09:48:47;;;;;;;1.85;0.50;;;23.40;45.00;22.20;101812.00;;;;5032129;28;20111;-71
2022/06/16 09:52:01;;;;;;;2.75;0.55;;;23.40;45.30;22.20;101816.00;;;;5049006;28;20044;-72
2022/06/16 09:54:55;;;;;;;1.30;0.60;;;23.40;45.00;22.20;101812.00;;;;5062630;28;20076;-71
2022/06/16 09:57:46;;;;;;;1.77;0.65;;;23.40;45.00;22.20;101812.00;;;;5047596;28;20051;-71
2022/06/16 10:00:35;;;;;;;0.57;0.40;;;23.40;45.20;22.20;101807.00;;;;5038749;28;20111;-72
2022/06/16 10:03:51;;;;;;;2.22;0.57;;;23.40;45.00;22.30;101815.00;;;;5048193;28;20493;-71
2022/06/16 10:06:56;;;;;;;0.82;0.50;;;23.40;45.00;22.20;101825.00;;;;5062750;28;20036;-71
2022/06/16 10:10:03;;;;;;;1.98;0.40;;;23.40;45.00;22.20;101831.00;;;;5043024;28;20068;-71
2022/06/16 10:12:59;;;;;;;2.15;0.55;;;23.40;45.00;22.30;101833.00;;;;5064164;28;20478;-73
2022/06/16 10:15:51;;;;;;;2.47;0.80;;;23.40;45.00;22.30;101840.00;;;;5049600;28;20032;-72
2022/06/16 10:18:39;;;;;;;2.08;0.65;;;23.40;45.10;22.30;101853.00;;;;5050632;28;20474;-72
2022/06/16 10:21:25;;;;;;;0.82;0.47;;;23.40;45.00;22.30;101848.00;;;;5052014;28;20074;-73
2022/06/16 10:24:11;;;;;;;2.92;0.55;;;23.40;45.00;22.30;101846.00;;;;5050260;28;20093;-73
2022/06/16 10:26:57;;;;;;;1.98;0.63;;;23.40;45.10;22.30;101845.00;;;;5040218;28;20055;-72
2022/06/16 10:29:55;;;;;;;0.63;0.50;;;23.40;45.10;22.30;101851.00;;;;5063699;28;20516;-72
2022/06/16 10:32:44;;;;;;;1.15;0.70;;;23.40;45.20;22.30;101855.00;;;;5046922;28;20044;-72
2022/06/16 10:35:30;;;;;;;1.52;0.50;;;23.50;45.20;22.30;101861.00;;;;5060456;28;20422;-71
2022/06/16 10:38:36;;;;;;;1.20;0.65;;;23.40;45.10;22.30;101853.00;;;;5048559;28;20047;-72
2022/06/16 10:41:33;;;;;;;2.17;0.75;;;23.40;45.10;22.30;101853.00;;;;5056315;28;20044;-72
2022/06/16 10:44:20;;;;;;;1.00;0.57;;;23.50;45.10;22.30;101862.00;;;;5052799;28;20074;-71
2022/06/16 10:47:07;;;;;;;1.25;0.50;;;23.50;45.20;22.30;101856.00;;;;5054390;28;20037;-72
2022/06/16 10:49:53;;;;;;;2.38;0.85;;;23.50;45.10;22.30;101864.00;;;;5058410;28;20044;-71
2022/06/16 10:52:40;;;;;;;0.63;0.50;;;23.50;45.00;22.30;101859.00;;;;5057029;28;20049;-72
2022/06/16 10:55:29;;;;;;;0.95;0.55;;;23.50;45.00;22.30;101874.00;;;;5052761;28;20093;-72
2022/06/16 10:58:26;;;;;;;1.35;0.52;;;23.50;45.00;22.30;101874.00;;;;5058489;28;20048;-71
2022/06/16 11:01:20;;;;;;;1.70;0.55;;;23.50;45.70;22.30;101871.00;;;;5050450;28;20054;-72
2022/06/16 11:04:12;;;;;;;2.25;0.60;;;23.50;45.00;22.30;101887.00;;;;5058002;28;20511;-71
2022/06/16 11:06:59;;;;;;;0.95;0.52;;;23.50;45.00;22.30;101878.00;;;;5065177;28;20036;-71
2022/06/16 11:09:45;;;;;;;1.85;0.80;;;23.50;45.00;22.40;101892.00;;;;5028440;28;20044;-72
2022/06/16 11:12:31;;;;;;;1.33;0.60;;;23.50;44.90;22.30;101880.00;;;;5036244;28;20044;-72
2022/06/16 11:15:33;;;;;;;0.95;0.55;;;23.50;45.00;22.40;101893.00;;;;5043983;28;20045;-72
2022/06/16 11:18:21;;;;;;;1.02;0.70;;;23.50;45.00;22.40;101881.00;;;;5039959;28;20056;-72
2022/06/16 11:21:22;;;;;;;2.17;1.00;;;23.50;44.90;22.40;101884.00;;;;5048883;28;20478;-71
2022/06/16 11:24:28;;;;;;;1.40;0.80;;;23.50;44.90;22.40;101881.00;;;;5046002;28;20048;-72
2022/06/16 11:27:16;;;;;;;1.15;0.80;;;23.60;45.00;22.40;101878.00;;;;5057582;28;20041;-72
2022/06/16 11:30:03;;;;;;;0.60;0.52;;;23.50;44.80;22.40;101883.00;;;;5061592;28;20036;-72
2022/06/16 11:32:49;;;;;;;0.93;0.80;;;23.60;44.80;22.40;101882.00;;;;5068130;28;20145;-72
2022/06/16 11:35:49;;;;;;;0.55;0.50;;;23.60;44.80;22.40;101888.00;;;;5063369;28;20462;-72
2022/06/16 11:38:50;;;;;;;1.98;0.85;;;23.60;44.80;22.40;101893.00;;;;5048061;28;20451;-72
2022/06/16 11:41:37;;;;;;;0.98;0.47;;;23.50;44.70;22.40;101893.00;;;;5052812;28;20045;-72
2022/06/16 11:45:22;;;;;;;0.98;0.70;;;23.60;44.70;22.40;101892.00;;;;5054624;28;20151;-72
2022/06/16 11:48:22;;;;;;;0.63;0.57;;;23.60;44.80;22.40;101888.00;;;;5044408;28;20125;-72
2022/06/16 11:51:40;;;;;;;3.40;0.70;;;23.60;44.80;22.40;101883.00;;;;5051228;28;20067;-72
2022/06/16 11:54:38;;;;;;;2.17;0.60;;;23.60;44.70;22.40;101882.00;;;;5071115;28;20455;-72
2022/06/16 11:57:34;;;;;;;1.73;0.90;;;23.60;44.80;22.40;101886.00;;;;5064535;28;20047;-72
2022/06/16 12:00:45;;;;;;;0.88;0.60;;;23.70;44.80;22.40;101884.00;;;;5061346;28;20067;-72
2022/06/16 12:03:56;;;;;;;2.72;0.98;;;23.70;44.80;22.40;101886.00;;;;5046993;28;20048;-72
2022/06/16 12:07:11;;;;;;;1.02;0.85;;;23.60;44.60;22.40;101892.00;;;;5063050;28;20477;-72
2022/06/16 12:10:29;;;;;;;1.33;0.80;;;23.70;44.60;22.40;101891.00;;;;5066890;28;20486;-72
2022/06/16 12:13:49;;;;;;;1.20;0.80;;;23.70;44.60;22.40;101893.00;;;;5056541;28;20512;-72
2022/06/16 12:17:07;;;;;;;1.35;0.63;;;23.70;44.60;22.40;101906.00;;;;5047414;28;20420;-72
2022/06/16 12:20:22;;;;;;;1.83;0.80;;;23.70;45.30;22.40;101907.00;;;;5051249;28;20037;-72
2022/06/16 12:23:25;;;;;;;1.55;0.60;;;23.70;44.60;22.40;101909.00;;;;5053484;28;20417;-72
2022/06/16 12:26:24;;;;;;;1.02;0.80;;;23.70;44.60;22.40;101894.00;;;;5058153;28;20502;-72
2022/06/16 12:29:27;;;;;;;1.77;0.77;;;23.70;44.80;22.40;101885.00;;;;5052586;28;20045;-72
2022/06/16 12:32:32;;;;;;;1.20;0.85;;;23.70;44.60;22.40;101878.00;;;;5070483;28;20044;-72
2022/06/16 12:36:13;;;;;;;1.10;0.55;;;23.70;44.50;22.40;101884.00;;;;5058307;28;20439;-72
2022/06/16 12:39:07;;;;;;;1.35;0.75;;;23.70;44.60;22.40;101879.00;;;;5011247;28;20049;-72
2022/06/16 12:42:14;;;;;;;1.38;0.80;;;23.70;44.50;22.40;101885.00;;;;5058226;28;20054;-72
2022/06/16 12:45:06;;;;;;;0.75;0.60;;;23.70;44.50;22.40;101873.00;;;;5050288;28;20182;-72
2022/06/16 12:48:06;;;;;;;1.25;0.55;;;23.70;44.50;22.40;101876.00;;;;5068670;28;20071;-72
2022/06/16 12:50:58;;;;;;;1.67;0.90;;;23.70;44.40;22.50;101880.00;;;;5052035;28;20044;-72
2022/06/16 12:53:55;;;;;;;1.38;0.77;;;23.70;44.40;22.50;101890.00;;;;5041104;28;21003;-74
2022/06/16 12:56:46;;;;;;;3.85;0.80;;;23.70;44.40;22.50;101884.00;;;;5048497;28;20084;-72
2022/06/16 12:59:47;;;;;;;2.53;0.77;;;23.70;44.40;22.50;101872.00;;;;5058062;28;20057;-72
2022/06/16 13:02:36;;;;;;;1.67;0.90;;;23.70;44.30;22.50;101875.00;;;;5043614;28;20036;-72
2022/06/16 13:05:22;;;;;;;1.48;0.70;;;23.70;44.30;22.50;101881.00;;;;5052318;28;20518;-72
2022/06/16 13:08:08;;;;;;;2.63;0.73;;;23.70;44.30;22.50;101875.00;;;;5066602;28;20052;-72